sensor_id;sensor_type;location;lat;lon;timestamp;temperature;humidity
19945;DHT22;10134;50.952;6.930;2023-09-07T00:01:01;21.70;99.90
19945;DHT22;10134;50.952;6.930;2023-09-07T00:03:30;21.70;99.90
19945;DHT22;10134;50.952;6.930;2023-09-07T00:05:58;21.70;99.90
19945;DHT22;10134;50.952;6.930;2023-09-07T00:08:25;21.70;99.90
19945;DHT22;10134;50.952;6.930;2023-09-07T00:10:53;21.70;99.90
19945;DHT22;10134;50.952;6.930;2023-09-07T00:13:20;21.80;99.90
19945;DHT22;10134;50.952;6.930;2023-09-07T00:15:47;21.80;99.90
19945;DHT22;10134;50.952;6.930;2023-09-07T00:18:14;21.70;99.90
19945;DHT22;10134;50.952;6.930;2023-09-07T00:20:46;21.80;99.90
19945;DHT22;10134;50.952;6.930;2023-09-07T00:23:13;21.80;99.90
19945;DHT22;10134;50.952;6.930;2023-09-07T00:25:40;21.80;99.90
19945;DHT22;10134;50.952;6.930;2023-09-07T00:28:07;21.80;99.90
19945;DHT22;10134;50.952;6.930;2023-09-07T00:30:35;21.70;99.90
19945;DHT22;10134;50.952;6.930;2023-09-07T00:33:03;21.70;99.90
19945;DHT22;10134;50.952;6.930;2023-09-07T00:35:30;21.70;99.90
19945;DHT22;10134;50.952;6.930;2023-09-07T00:37:57;21.70;99.90
19945;DHT22;10134;50.952;6.930;2023-09-07T00:40:25;21.70;99.90
19945;DHT22;10134;50.952;6.930;2023-09-07T00:42:54;21.70;99.90
19945;DHT22;10134;50.952;6.930;2023-09-07T00:45:21;21.70;99.90
19945;DHT22;10134;50.952;6.930;2023-09-07T00:47:49;21.70;99.90
19945;DHT22;10134;50.952;6.930;2023-09-07T00:50:16;21.70;99.90
19945;DHT22;10134;50.952;6.930;2023-09-07T00:52:44;21.60;99.90
19945;DHT22;10134;50.952;6.930;2023-09-07T00:55:13;21.60;99.90
19945;DHT22;10134;50.952;6.930;2023-09-07T00:57:40;21.60;99.90
19945;DHT22;10134;50.952;6.930;2023-09-07T01:00:10;21.60;99.90
19945;DHT22;10134;50.952;6.930;2023-09-07T01:02:38;21.60;99.90
19945;DHT22;10134;50.952;6.930;2023-09-07T01:05:05;21.60;99.90
19945;DHT22;10134;50.952;6.930;2023-09-07T01:07:48;21.60;99.90
19945;DHT22;10134;50.952;6.930;2023-09-07T01:10:20;21.60;99.90
19945;DHT22;10134;50.952;6.930;2023-09-07T01:12:49;21.60;99.90
19945;DHT22;10134;50.952;6.930;2023-09-07T01:15:17;21.60;99.90
19945;DHT22;10134;50.952;6.930;2023-09-07T01:17:44;21.60;99.90
19945;DHT22;10134;50.952;6.930;2023-09-07T01:20:13;21.50;99.90
19945;DHT22;10134;50.952;6.930;2023-09-07T01:22:45;21.50;99.90
19945;DHT22;10134;50.952;6.930;2023-09-07T01:25:13;21.50;99.90
19945;DHT22;10134;50.952;6.930;2023-09-07T01:27:41;21.50;99.90
19945;DHT22;10134;50.952;6.930;2023-09-07T01:30:08;21.50;99.90
19945;DHT22;10134;50.952;6.930;2023-09-07T01:32:36;21.50;99.90
19945;DHT22;10134;50.952;6.930;2023-09-07T01:35:05;21.50;99.90
19945;DHT22;10134;50.952;6.930;2023-09-07T01:37:34;21.40;99.90
19945;DHT22;10134;50.952;6.930;2023-09-07T01:40:03;21.40;99.90
19945;DHT22;10134;50.952;6.930;2023-09-07T01:42:34;21.40;99.90
19945;DHT22;10134;50.952;6.930;2023-09-07T01:45:01;21.30;99.90
19945;DHT22;10134;50.952;6.930;2023-09-07T01:47:28;21.30;99.90
19945;DHT22;10134;50.952;6.930;2023-09-07T01:49:56;21.30;99.90
19945;DHT22;10134;50.952;6.930;2023-09-07T01:52:24;21.30;99.90
19945;DHT22;10134;50.952;6.930;2023-09-07T01:54:51;21.30;99.90
19945;DHT22;10134;50.952;6.930;2023-09-07T01:57:18;21.20;99.90
19945;DHT22;10134;50.952;6.930;2023-09-07T01:59:45;21.20;99.90
19945;DHT22;10134;50.952;6.930;2023-09-07T02:02:15;21.20;99.90
19945;DHT22;10134;50.952;6.930;2023-09-07T02:04:42;21.20;99.90
19945;DHT22;10134;50.952;6.930;2023-09-07T02:07:13;21.10;99.90
19945;DHT22;10134;50.952;6.930;2023-09-07T02:09:42;21.10;99.90
19945;DHT22;10134;50.952;6.930;2023-09-07T02:12:09;21.10;99.90
19945;DHT22;10134;50.952;6.930;2023-09-07T02:14:37;21.00;99.90
19945;DHT22;10134;50.952;6.930;2023-09-07T02:17:05;21.00;99.90
19945;DHT22;10134;50.952;6.930;2023-09-07T02:19:32;21.00;99.90
19945;DHT22;10134;50.952;6.930;2023-09-07T02:21:59;21.00;99.90
19945;DHT22;10134;50.952;6.930;2023-09-07T02:24:27;21.00;99.90
19945;DHT22;10134;50.952;6.930;2023-09-07T02:26:55;21.00;99.90
19945;DHT22;10134;50.952;6.930;2023-09-07T02:29:22;21.00;99.90
19945;DHT22;10134;50.952;6.930;2023-09-07T02:31:50;21.00;99.90
19945;DHT22;10134;50.952;6.930;2023-09-07T02:34:17;20.90;99.90
19945;DHT22;10134;50.952;6.930;2023-09-07T02:36:44;20.90;99.90
19945;DHT22;10134;50.952;6.930;2023-09-07T02:39:12;20.80;99.90
19945;DHT22;10134;50.952;6.930;2023-09-07T02:41:39;20.80;99.90
19945;DHT22;10134;50.952;6.930;2023-09-07T02:44:07;20.80;99.90
19945;DHT22;10134;50.952;6.930;2023-09-07T02:46:34;20.80;99.90
19945;DHT22;10134;50.952;6.930;2023-09-07T02:49:02;20.80;99.90
19945;DHT22;10134;50.952;6.930;2023-09-07T02:51:29;20.80;99.90
19945;DHT22;10134;50.952;6.930;2023-09-07T02:53:57;20.70;99.90
19945;DHT22;10134;50.952;6.930;2023-09-07T02:56:24;20.70;99.90
19945;DHT22;10134;50.952;6.930;2023-09-07T02:58:52;20.70;99.90
19945;DHT22;10134;50.952;6.930;2023-09-07T03:01:19;20.70;99.90
19945;DHT22;10134;50.952;6.930;2023-09-07T03:03:48;20.70;99.90
19945;DHT22;10134;50.952;6.930;2023-09-07T03:06:17;20.70;99.90
19945;DHT22;10134;50.952;6.930;2023-09-07T03:08:47;20.70;99.90
19945;DHT22;10134;50.952;6.930;2023-09-07T03:11:15;20.70;99.90
19945;DHT22;10134;50.952;6.930;2023-09-07T03:13:42;20.70;99.90
19945;DHT22;10134;50.952;6.930;2023-09-07T03:16:10;20.60;99.90
19945;DHT22;10134;50.952;6.930;2023-09-07T03:18:38;20.60;99.90
19945;DHT22;10134;50.952;6.930;2023-09-07T03:21:05;20.60;99.90
19945;DHT22;10134;50.952;6.930;2023-09-07T03:23:33;20.60;99.90
19945;DHT22;10134;50.952;6.930;2023-09-07T03:26:02;20.60;99.90
19945;DHT22;10134;50.952;6.930;2023-09-07T03:28:30;20.50;99.90
19945;DHT22;10134;50.952;6.930;2023-09-07T03:30:58;20.40;99.90
19945;DHT22;10134;50.952;6.930;2023-09-07T03:33:25;20.40;99.90
19945;DHT22;10134;50.952;6.930;2023-09-07T03:35:52;20.40;99.90
19945;DHT22;10134;50.952;6.930;2023-09-07T03:38:20;20.40;99.90
19945;DHT22;10134;50.952;6.930;2023-09-07T03:40:47;20.40;99.90
19945;DHT22;10134;50.952;6.930;2023-09-07T03:43:15;20.40;99.90
19945;DHT22;10134;50.952;6.930;2023-09-07T03:45:42;20.40;99.90
19945;DHT22;10134;50.952;6.930;2023-09-07T03:48:10;20.40;99.90
19945;DHT22;10134;50.952;6.930;2023-09-07T03:50:38;20.40;99.90
19945;DHT22;10134;50.952;6.930;2023-09-07T03:53:05;20.40;99.90
19945;DHT22;10134;50.952;6.930;2023-09-07T03:55:40;20.40;99.90
19945;DHT22;10134;50.952;6.930;2023-09-07T03:58:10;20.40;99.90
19945;DHT22;10134;50.952;6.930;2023-09-07T04:00:40;20.40;99.90
19945;DHT22;10134;50.952;6.930;2023-09-07T04:03:08;20.30;99.90
19945;DHT22;10134;50.952;6.930;2023-09-07T04:05:39;20.30;99.90
19945;DHT22;10134;50.952;6.930;2023-09-07T04:08:07;20.30;99.90
19945;DHT22;10134;50.952;6.930;2023-09-07T04:10:37;20.30;99.90
19945;DHT22;10134;50.952;6.930;2023-09-07T04:13:05;20.30;99.90
19945;DHT22;10134;50.952;6.930;2023-09-07T04:15:45;20.30;99.90
19945;DHT22;10134;50.952;6.930;2023-09-07T04:18:15;20.20;99.90
19945;DHT22;10134;50.952;6.930;2023-09-07T04:20:44;20.20;99.90
19945;DHT22;10134;50.952;6.930;2023-09-07T04:23:12;20.20;99.90
19945;DHT22;10134;50.952;6.930;2023-09-07T04:25:40;20.20;99.90
19945;DHT22;10134;50.952;6.930;2023-09-07T04:28:08;20.20;99.90
19945;DHT22;10134;50.952;6.930;2023-09-07T04:30:41;20.20;99.90
19945;DHT22;10134;50.952;6.930;2023-09-07T04:33:08;20.20;99.90
19945;DHT22;10134;50.952;6.930;2023-09-07T04:35:38;20.20;99.90
19945;DHT22;10134;50.952;6.930;2023-09-07T04:38:06;20.10;99.90
19945;DHT22;10134;50.952;6.930;2023-09-07T04:40:33;20.10;99.90
19945;DHT22;10134;50.952;6.930;2023-09-07T04:43:01;20.10;99.90
19945;DHT22;10134;50.952;6.930;2023-09-07T04:45:28;20.10;99.90
19945;DHT22;10134;50.952;6.930;2023-09-07T04:47:55;20.10;99.90
19945;DHT22;10134;50.952;6.930;2023-09-07T04:50:23;20.00;99.90
19945;DHT22;10134;50.952;6.930;2023-09-07T04:52:50;20.00;99.90
19945;DHT22;10134;50.952;6.930;2023-09-07T04:55:17;20.00;99.90
19945;DHT22;10134;50.952;6.930;2023-09-07T04:57:45;20.00;99.90
19945;DHT22;10134;50.952;6.930;2023-09-07T05:00:12;20.00;99.90
19945;DHT22;10134;50.952;6.930;2023-09-07T05:02:40;20.00;99.90
19945;DHT22;10134;50.952;6.930;2023-09-07T05:05:09;19.90;99.90
19945;DHT22;10134;50.952;6.930;2023-09-07T05:07:36;19.90;99.90
19945;DHT22;10134;50.952;6.930;2023-09-07T05:10:04;19.90;99.90
19945;DHT22;10134;50.952;6.930;2023-09-07T05:12:33;19.80;99.90
19945;DHT22;10134;50.952;6.930;2023-09-07T05:15:01;19.80;99.90
19945;DHT22;10134;50.952;6.930;2023-09-07T05:17:28;19.80;99.90
19945;DHT22;10134;50.952;6.930;2023-09-07T05:19:56;19.80;99.90
19945;DHT22;10134;50.952;6.930;2023-09-07T05:22:23;19.80;99.90
19945;DHT22;10134;50.952;6.930;2023-09-07T05:24:53;19.80;99.90
19945;DHT22;10134;50.952;6.930;2023-09-07T05:27:20;19.70;99.90
19945;DHT22;10134;50.952;6.930;2023-09-07T05:29:48;19.70;99.90
19945;DHT22;10134;50.952;6.930;2023-09-07T05:32:16;19.70;99.90
19945;DHT22;10134;50.952;6.930;2023-09-07T05:34:43;19.70;99.90
19945;DHT22;10134;50.952;6.930;2023-09-07T05:37:11;19.60;99.90
19945;DHT22;10134;50.952;6.930;2023-09-07T05:39:39;19.60;99.90
19945;DHT22;10134;50.952;6.930;2023-09-07T05:42:06;19.60;99.90
19945;DHT22;10134;50.952;6.930;2023-09-07T05:44:33;19.60;99.90
19945;DHT22;10134;50.952;6.930;2023-09-07T05:47:02;19.60;99.90
19945;DHT22;10134;50.952;6.930;2023-09-07T05:49:30;19.60;99.90
19945;DHT22;10134;50.952;6.930;2023-09-07T05:51:57;19.60;99.90
19945;DHT22;10134;50.952;6.930;2023-09-07T05:54:25;19.60;99.90
19945;DHT22;10134;50.952;6.930;2023-09-07T05:56:53;19.60;99.90
19945;DHT22;10134;50.952;6.930;2023-09-07T05:59:20;19.60;99.90
19945;DHT22;10134;50.952;6.930;2023-09-07T06:01:47;19.70;99.90
19945;DHT22;10134;50.952;6.930;2023-09-07T06:04:15;19.70;99.90
19945;DHT22;10134;50.952;6.930;2023-09-07T06:06:42;19.60;99.90
19945;DHT22;10134;50.952;6.930;2023-09-07T06:09:10;19.70;99.90
19945;DHT22;10134;50.952;6.930;2023-09-07T06:11:37;19.70;99.90
19945;DHT22;10134;50.952;6.930;2023-09-07T06:14:06;19.70;99.90
19945;DHT22;10134;50.952;6.930;2023-09-07T06:16:33;19.70;99.90
19945;DHT22;10134;50.952;6.930;2023-09-07T06:19:02;19.70;99.90
19945;DHT22;10134;50.952;6.930;2023-09-07T06:21:29;19.70;99.90
19945;DHT22;10134;50.952;6.930;2023-09-07T06:23:57;19.80;99.90
19945;DHT22;10134;50.952;6.930;2023-09-07T06:26:24;19.80;99.90
19945;DHT22;10134;50.952;6.930;2023-09-07T06:28:54;19.80;99.90
19945;DHT22;10134;50.952;6.930;2023-09-07T06:31:22;19.90;99.90
19945;DHT22;10134;50.952;6.930;2023-09-07T06:33:50;19.90;99.90
19945;DHT22;10134;50.952;6.930;2023-09-07T06:36:17;20.00;99.90
19945;DHT22;10134;50.952;6.930;2023-09-07T06:39:00;20.00;99.90
19945;DHT22;10134;50.952;6.930;2023-09-07T06:41:28;20.00;99.90
19945;DHT22;10134;50.952;6.930;2023-09-07T06:43:55;20.00;99.90
19945;DHT22;10134;50.952;6.930;2023-09-07T06:46:22;20.10;99.90
19945;DHT22;10134;50.952;6.930;2023-09-07T06:48:50;20.10;99.90
19945;DHT22;10134;50.952;6.930;2023-09-07T06:51:17;20.20;99.90
19945;DHT22;10134;50.952;6.930;2023-09-07T06:53:45;20.20;99.90
19945;DHT22;10134;50.952;6.930;2023-09-07T06:56:25;20.20;99.90
19945;DHT22;10134;50.952;6.930;2023-09-07T06:58:54;20.30;99.90
19945;DHT22;10134;50.952;6.930;2023-09-07T07:01:21;20.40;99.90
19945;DHT22;10134;50.952;6.930;2023-09-07T07:03:49;20.40;99.90
19945;DHT22;10134;50.952;6.930;2023-09-07T07:06:17;20.50;99.90
19945;DHT22;10134;50.952;6.930;2023-09-07T07:08:44;20.50;99.90
19945;DHT22;10134;50.952;6.930;2023-09-07T07:11:12;20.60;99.90
19945;DHT22;10134;50.952;6.930;2023-09-07T07:13:39;20.60;99.90
19945;DHT22;10134;50.952;6.930;2023-09-07T07:16:07;20.70;99.90
19945;DHT22;10134;50.952;6.930;2023-09-07T07:18:40;20.70;99.90
19945;DHT22;10134;50.952;6.930;2023-09-07T07:21:25;20.80;99.90
19945;DHT22;10134;50.952;6.930;2023-09-07T07:23:53;20.80;99.90
19945;DHT22;10134;50.952;6.930;2023-09-07T07:26:21;20.90;99.90
19945;DHT22;10134;50.952;6.930;2023-09-07T07:28:49;20.90;99.90
19945;DHT22;10134;50.952;6.930;2023-09-07T07:31:17;21.00;99.90
19945;DHT22;10134;50.952;6.930;2023-09-07T07:33:46;21.00;99.90
19945;DHT22;10134;50.952;6.930;2023-09-07T07:36:15;21.10;99.90
19945;DHT22;10134;50.952;6.930;2023-09-07T07:38:43;21.20;99.90
19945;DHT22;10134;50.952;6.930;2023-09-07T07:41:11;21.20;99.90
19945;DHT22;10134;50.952;6.930;2023-09-07T07:43:38;21.20;99.90
19945;DHT22;10134;50.952;6.930;2023-09-07T07:46:05;21.30;99.90
19945;DHT22;10134;50.952;6.930;2023-09-07T07:48:34;21.40;99.90
19945;DHT22;10134;50.952;6.930;2023-09-07T07:51:04;21.40;99.90
19945;DHT22;10134;50.952;6.930;2023-09-07T07:53:36;21.40;99.90
19945;DHT22;10134;50.952;6.930;2023-09-07T07:56:04;21.60;99.90
19945;DHT22;10134;50.952;6.930;2023-09-07T07:58:31;21.60;99.90
19945;DHT22;10134;50.952;6.930;2023-09-07T08:00:59;21.60;99.90
19945;DHT22;10134;50.952;6.930;2023-09-07T08:03:30;21.70;99.90
19945;DHT22;10134;50.952;6.930;2023-09-07T08:05:58;21.70;99.90
19945;DHT22;10134;50.952;6.930;2023-09-07T08:08:26;21.80;99.90
19945;DHT22;10134;50.952;6.930;2023-09-07T08:10:53;21.90;99.90
19945;DHT22;10134;50.952;6.930;2023-09-07T08:13:21;21.90;99.90
19945;DHT22;10134;50.952;6.930;2023-09-07T08:15:49;22.00;99.90
19945;DHT22;10134;50.952;6.930;2023-09-07T08:18:17;22.10;99.90
19945;DHT22;10134;50.952;6.930;2023-09-07T08:20:45;22.10;99.90
19945;DHT22;10134;50.952;6.930;2023-09-07T08:23:12;22.20;99.90
19945;DHT22;10134;50.952;6.930;2023-09-07T08:25:39;22.20;99.90
19945;DHT22;10134;50.952;6.930;2023-09-07T08:28:12;22.30;99.90
19945;DHT22;10134;50.952;6.930;2023-09-07T08:30:40;22.40;99.90
19945;DHT22;10134;50.952;6.930;2023-09-07T08:33:07;22.40;99.90
19945;DHT22;10134;50.952;6.930;2023-09-07T08:35:35;22.40;99.90
19945;DHT22;10134;50.952;6.930;2023-09-07T08:38:04;22.50;99.90
19945;DHT22;10134;50.952;6.930;2023-09-07T08:40:32;22.50;99.90
19945;DHT22;10134;50.952;6.930;2023-09-07T08:43:04;22.60;99.90
19945;DHT22;10134;50.952;6.930;2023-09-07T08:45:37;22.60;99.90
19945;DHT22;10134;50.952;6.930;2023-09-07T08:48:09;22.70;99.90
19945;DHT22;10134;50.952;6.930;2023-09-07T08:50:40;22.80;99.90
19945;DHT22;10134;50.952;6.930;2023-09-07T08:53:09;22.80;99.90
19945;DHT22;10134;50.952;6.930;2023-09-07T08:55:37;22.90;99.90
19945;DHT22;10134;50.952;6.930;2023-09-07T08:58:04;22.90;99.90
19945;DHT22;10134;50.952;6.930;2023-09-07T09:00:31;23.00;99.90
19945;DHT22;10134;50.952;6.930;2023-09-07T09:02:59;23.10;99.90
19945;DHT22;10134;50.952;6.930;2023-09-07T09:05:28;23.10;99.90
19945;DHT22;10134;50.952;6.930;2023-09-07T09:08:03;23.20;99.90
19945;DHT22;10134;50.952;6.930;2023-09-07T09:10:31;23.20;99.90
19945;DHT22;10134;50.952;6.930;2023-09-07T09:12:58;23.30;99.90
19945;DHT22;10134;50.952;6.930;2023-09-07T09:15:26;23.30;99.90
19945;DHT22;10134;50.952;6.930;2023-09-07T09:17:54;23.40;99.90
19945;DHT22;10134;50.952;6.930;2023-09-07T09:20:23;23.40;99.90
19945;DHT22;10134;50.952;6.930;2023-09-07T09:22:52;23.50;99.90
19945;DHT22;10134;50.952;6.930;2023-09-07T09:25:21;23.50;99.90
19945;DHT22;10134;50.952;6.930;2023-09-07T09:27:48;23.60;99.90
19945;DHT22;10134;50.952;6.930;2023-09-07T09:30:16;23.70;99.90
19945;DHT22;10134;50.952;6.930;2023-09-07T09:32:43;23.70;99.90
19945;DHT22;10134;50.952;6.930;2023-09-07T09:35:11;23.80;99.90
19945;DHT22;10134;50.952;6.930;2023-09-07T09:37:48;23.90;99.90
19945;DHT22;10134;50.952;6.930;2023-09-07T09:40:16;23.90;99.90
19945;DHT22;10134;50.952;6.930;2023-09-07T09:42:44;24.00;99.90
19945;DHT22;10134;50.952;6.930;2023-09-07T09:45:12;24.10;99.90
19945;DHT22;10134;50.952;6.930;2023-09-07T09:47:42;24.10;99.90
19945;DHT22;10134;50.952;6.930;2023-09-07T09:50:11;24.20;99.90
19945;DHT22;10134;50.952;6.930;2023-09-07T09:52:38;24.20;99.90
19945;DHT22;10134;50.952;6.930;2023-09-07T09:55:07;24.30;99.90
19945;DHT22;10134;50.952;6.930;2023-09-07T09:57:36;24.40;99.90
19945;DHT22;10134;50.952;6.930;2023-09-07T10:00:04;24.40;99.90
19945;DHT22;10134;50.952;6.930;2023-09-07T10:02:47;24.50;99.90
19945;DHT22;10134;50.952;6.930;2023-09-07T10:05:16;24.60;99.90
19945;DHT22;10134;50.952;6.930;2023-09-07T10:07:47;24.60;99.90
19945;DHT22;10134;50.952;6.930;2023-09-07T10:10:17;24.60;99.90
19945;DHT22;10134;50.952;6.930;2023-09-07T10:12:52;24.70;99.90
19945;DHT22;10134;50.952;6.930;2023-09-07T10:15:27;24.80;99.90
19945;DHT22;10134;50.952;6.930;2023-09-07T10:18:10;24.80;99.90
19945;DHT22;10134;50.952;6.930;2023-09-07T10:20:57;24.90;99.90
19945;DHT22;10134;50.952;6.930;2023-09-07T10:23:40;25.00;99.90
19945;DHT22;10134;50.952;6.930;2023-09-07T10:26:13;25.00;99.90
19945;DHT22;10134;50.952;6.930;2023-09-07T10:28:42;25.10;99.90
19945;DHT22;10134;50.952;6.930;2023-09-07T10:31:13;25.20;99.90
19945;DHT22;10134;50.952;6.930;2023-09-07T10:33:41;25.20;99.90
19945;DHT22;10134;50.952;6.930;2023-09-07T10:36:23;25.30;99.90
19945;DHT22;10134;50.952;6.930;2023-09-07T10:38:52;25.30;99.90
19945;DHT22;10134;50.952;6.930;2023-09-07T10:41:22;25.40;99.90
19945;DHT22;10134;50.952;6.930;2023-09-07T10:43:58;25.50;99.90
19945;DHT22;10134;50.952;6.930;2023-09-07T10:46:26;25.50;99.90
19945;DHT22;10134;50.952;6.930;2023-09-07T10:48:53;25.60;99.90
19945;DHT22;10134;50.952;6.930;2023-09-07T10:51:23;25.70;99.90
19945;DHT22;10134;50.952;6.930;2023-09-07T10:53:51;25.70;99.90
19945;DHT22;10134;50.952;6.930;2023-09-07T10:56:18;25.80;99.90
19945;DHT22;10134;50.952;6.930;2023-09-07T10:58:46;25.80;99.90
19945;DHT22;10134;50.952;6.930;2023-09-07T11:01:20;25.90;99.90
19945;DHT22;10134;50.952;6.930;2023-09-07T11:03:47;26.00;99.90
19945;DHT22;10134;50.952;6.930;2023-09-07T11:06:20;26.00;99.90
19945;DHT22;10134;50.952;6.930;2023-09-07T11:08:51;26.10;99.90
19945;DHT22;10134;50.952;6.930;2023-09-07T11:11:19;26.10;99.90
19945;DHT22;10134;50.952;6.930;2023-09-07T11:13:46;26.20;99.90
19945;DHT22;10134;50.952;6.930;2023-09-07T11:16:15;26.30;99.90
19945;DHT22;10134;50.952;6.930;2023-09-07T11:18:45;26.30;99.90
19945;DHT22;10134;50.952;6.930;2023-09-07T11:21:14;26.40;99.90
19945;DHT22;10134;50.952;6.930;2023-09-07T11:23:41;26.50;99.90
19945;DHT22;10134;50.952;6.930;2023-09-07T11:26:10;26.50;99.90
19945;DHT22;10134;50.952;6.930;2023-09-07T11:28:38;26.50;99.90
19945;DHT22;10134;50.952;6.930;2023-09-07T11:31:05;26.60;99.90
19945;DHT22;10134;50.952;6.930;2023-09-07T11:33:33;26.70;99.90
19945;DHT22;10134;50.952;6.930;2023-09-07T11:36:02;26.70;99.90
19945;DHT22;10134;50.952;6.930;2023-09-07T11:38:35;26.80;99.90
19945;DHT22;10134;50.952;6.930;2023-09-07T11:41:03;26.80;99.90
19945;DHT22;10134;50.952;6.930;2023-09-07T11:43:30;26.90;99.90
19945;DHT22;10134;50.952;6.930;2023-09-07T11:45:59;27.00;99.90
19945;DHT22;10134;50.952;6.930;2023-09-07T11:48:28;27.00;99.90
19945;DHT22;10134;50.952;6.930;2023-09-07T11:50:56;27.10;99.90
19945;DHT22;10134;50.952;6.930;2023-09-07T11:53:23;27.10;99.90
19945;DHT22;10134;50.952;6.930;2023-09-07T11:55:51;27.20;99.90
19945;DHT22;10134;50.952;6.930;2023-09-07T11:58:18;27.20;99.90
19945;DHT22;10134;50.952;6.930;2023-09-07T12:00:46;27.30;99.80
19945;DHT22;10134;50.952;6.930;2023-09-07T12:03:14;27.30;99.50
19945;DHT22;10134;50.952;6.930;2023-09-07T12:05:41;27.40;99.20
19945;DHT22;10134;50.952;6.930;2023-09-07T12:08:11;27.50;98.80
19945;DHT22;10134;50.952;6.930;2023-09-07T12:10:38;27.50;98.30
19945;DHT22;10134;50.952;6.930;2023-09-07T12:13:06;27.60;98.00
19945;DHT22;10134;50.952;6.930;2023-09-07T12:15:33;27.60;97.60
19945;DHT22;10134;50.952;6.930;2023-09-07T12:18:00;27.70;97.70
19945;DHT22;10134;50.952;6.930;2023-09-07T12:20:28;27.70;97.80
19945;DHT22;10134;50.952;6.930;2023-09-07T12:22:55;27.70;97.80
19945;DHT22;10134;50.952;6.930;2023-09-07T12:25:23;27.80;98.10
19945;DHT22;10134;50.952;6.930;2023-09-07T12:27:50;27.80;97.70
19945;DHT22;10134;50.952;6.930;2023-09-07T12:30:21;27.90;97.30
19945;DHT22;10134;50.952;6.930;2023-09-07T12:32:51;27.90;96.80
19945;DHT22;10134;50.952;6.930;2023-09-07T12:35:19;27.90;96.70
19945;DHT22;10134;50.952;6.930;2023-09-07T12:37:47;28.00;96.80
19945;DHT22;10134;50.952;6.930;2023-09-07T12:40:15;28.00;96.80
19945;DHT22;10134;50.952;6.930;2023-09-07T12:42:44;28.10;96.30
19945;DHT22;10134;50.952;6.930;2023-09-07T12:45:12;28.10;96.20
19945;DHT22;10134;50.952;6.930;2023-09-07T12:47:41;28.20;96.00
19945;DHT22;10134;50.952;6.930;2023-09-07T12:50:08;28.20;95.50
19945;DHT22;10134;50.952;6.930;2023-09-07T12:52:36;28.20;95.20
19945;DHT22;10134;50.952;6.930;2023-09-07T12:55:05;28.30;95.40
19945;DHT22;10134;50.952;6.930;2023-09-07T12:57:34;28.30;95.30
19945;DHT22;10134;50.952;6.930;2023-09-07T13:00:06;28.40;94.60
19945;DHT22;10134;50.952;6.930;2023-09-07T13:02:33;28.40;94.60
19945;DHT22;10134;50.952;6.930;2023-09-07T13:05:01;28.50;94.40
19945;DHT22;10134;50.952;6.930;2023-09-07T13:07:32;28.60;94.40
19945;DHT22;10134;50.952;6.930;2023-09-07T13:10:00;28.70;94.20
19945;DHT22;10134;50.952;6.930;2023-09-07T13:12:31;28.80;93.80
19945;DHT22;10134;50.952;6.930;2023-09-07T13:14:59;29.40;93.50
19945;DHT22;10134;50.952;6.930;2023-09-07T13:17:26;30.10;92.80
19945;DHT22;10134;50.952;6.930;2023-09-07T13:19:53;30.80;91.70
19945;DHT22;10134;50.952;6.930;2023-09-07T13:22:21;31.70;89.60
19945;DHT22;10134;50.952;6.930;2023-09-07T13:24:48;32.50;86.70
19945;DHT22;10134;50.952;6.930;2023-09-07T13:27:16;33.30;82.80
19945;DHT22;10134;50.952;6.930;2023-09-07T13:29:43;34.20;79.10
19945;DHT22;10134;50.952;6.930;2023-09-07T13:32:10;34.80;76.10
19945;DHT22;10134;50.952;6.930;2023-09-07T13:34:38;35.40;73.50
19945;DHT22;10134;50.952;6.930;2023-09-07T13:37:05;36.00;71.30
19945;DHT22;10134;50.952;6.930;2023-09-07T13:39:32;36.50;69.30
19945;DHT22;10134;50.952;6.930;2023-09-07T13:41:59;37.20;66.30
19945;DHT22;10134;50.952;6.930;2023-09-07T13:44:27;37.70;63.70
19945;DHT22;10134;50.952;6.930;2023-09-07T13:46:54;38.00;62.40
19945;DHT22;10134;50.952;6.930;2023-09-07T13:49:22;38.60;60.20
19945;DHT22;10134;50.952;6.930;2023-09-07T13:51:49;38.90;59.60
19945;DHT22;10134;50.952;6.930;2023-09-07T13:54:17;39.20;58.70
19945;DHT22;10134;50.952;6.930;2023-09-07T13:56:45;39.70;57.80
19945;DHT22;10134;50.952;6.930;2023-09-07T13:59:14;40.00;56.90
19945;DHT22;10134;50.952;6.930;2023-09-07T14:01:41;40.30;55.90
19945;DHT22;10134;50.952;6.930;2023-09-07T14:04:08;40.50;54.40
19945;DHT22;10134;50.952;6.930;2023-09-07T14:06:35;40.70;52.70
19945;DHT22;10134;50.952;6.930;2023-09-07T14:09:03;40.90;52.00
19945;DHT22;10134;50.952;6.930;2023-09-07T14:11:30;41.10;50.90
19945;DHT22;10134;50.952;6.930;2023-09-07T14:13:58;41.30;50.30
19945;DHT22;10134;50.952;6.930;2023-09-07T14:16:25;41.40;49.60
19945;DHT22;10134;50.952;6.930;2023-09-07T14:18:52;41.30;50.10
19945;DHT22;10134;50.952;6.930;2023-09-07T14:21:19;41.10;49.70
19945;DHT22;10134;50.952;6.930;2023-09-07T14:23:47;40.90;49.60
19945;DHT22;10134;50.952;6.930;2023-09-07T14:26:14;40.60;49.60
19945;DHT22;10134;50.952;6.930;2023-09-07T14:28:41;40.30;50.10
19945;DHT22;10134;50.952;6.930;2023-09-07T14:31:08;40.00;50.30
19945;DHT22;10134;50.952;6.930;2023-09-07T14:33:36;39.70;50.90
19945;DHT22;10134;50.952;6.930;2023-09-07T14:36:09;39.40;51.10
19945;DHT22;10134;50.952;6.930;2023-09-07T14:38:37;39.10;51.70
19945;DHT22;10134;50.952;6.930;2023-09-07T14:41:09;38.90;52.10
19945;DHT22;10134;50.952;6.930;2023-09-07T14:43:46;38.60;53.20
19945;DHT22;10134;50.952;6.930;2023-09-07T14:46:14;38.40;53.70
19945;DHT22;10134;50.952;6.930;2023-09-07T14:48:43;38.30;53.60
19945;DHT22;10134;50.952;6.930;2023-09-07T14:51:10;38.20;53.70
19945;DHT22;10134;50.952;6.930;2023-09-07T14:53:37;38.00;54.10
19945;DHT22;10134;50.952;6.930;2023-09-07T14:56:05;37.80;54.40
19945;DHT22;10134;50.952;6.930;2023-09-07T14:58:33;37.60;54.70
19945;DHT22;10134;50.952;6.930;2023-09-07T15:01:01;37.50;54.30
19945;DHT22;10134;50.952;6.930;2023-09-07T15:03:28;37.30;54.20
19945;DHT22;10134;50.952;6.930;2023-09-07T15:05:56;37.20;54.50
19945;DHT22;10134;50.952;6.930;2023-09-07T15:08:23;37.20;54.40
19945;DHT22;10134;50.952;6.930;2023-09-07T15:10:51;37.30;53.80
19945;DHT22;10134;50.952;6.930;2023-09-07T15:13:18;37.50;54.00
19945;DHT22;10134;50.952;6.930;2023-09-07T15:15:47;37.60;53.80
19945;DHT22;10134;50.952;6.930;2023-09-07T15:18:14;37.80;53.50
19945;DHT22;10134;50.952;6.930;2023-09-07T15:20:42;38.00;53.30
19945;DHT22;10134;50.952;6.930;2023-09-07T15:23:09;38.20;53.20
19945;DHT22;10134;50.952;6.930;2023-09-07T15:25:36;38.40;52.80
19945;DHT22;10134;50.952;6.930;2023-09-07T15:28:04;38.70;52.30
19945;DHT22;10134;50.952;6.930;2023-09-07T15:30:35;38.80;51.50
19945;DHT22;10134;50.952;6.930;2023-09-07T15:33:03;39.00;50.90
19945;DHT22;10134;50.952;6.930;2023-09-07T15:35:30;39.10;50.20
19945;DHT22;10134;50.952;6.930;2023-09-07T15:37:58;39.00;50.10